EDT,Max TemperatureF,Mean TemperatureF,Min TemperatureF,Max Dew PointF,MeanDew PointF,Min DewpointF,Max Humidity, Mean Humidity, Min Humidity, Max Sea Level PressureIn, Mean Sea Level PressureIn, Min Sea Level PressureIn, Max VisibilityMiles, Mean VisibilityMiles, Min VisibilityMiles, Max Wind SpeedMPH, Mean Wind SpeedMPH, Max Gust SpeedMPH,PrecipitationIn, CloudCover, Events, WindDirDegrees
2012-10-1,64,54,45,52,47,43,93,78,50,29.94,29.87,29.77,10,9,2,9,3,,0.11,3,Rain,63
2012-10-2,81,68,55,67,61,52,94,86,62,29.88,29.80,29.73,10,6,1,12,3,24,0.30,7,Rain,63
2012-10-3,71,63,55,64,59,53,100,86,53,30.15,30.01,29.87,10,5,0,15,4,21,0.00,5,Fog,211
2012-10-4,78,62,48,56,51,46,100,83,42,30.21,30.17,30.12,10,4,0,14,1,21,0.00,0,Fog,235
2012-10-5,75,62,50,59,54,46,89,75,52,30.13,30.04,29.93,10,10,7,13,4,,0.02,4,Rain,258
2012-10-6,59,50,42,46,40,34,93,75,41,30.12,30.03,29.95,10,8,2,13,6,16,0.48,4,Rain,304
2012-10-7,50,46,43,41,38,36,89,71,64,30.19,30.14,30.09,10,10,10,9,2,,0.00,8,Rain,288
2012-10-8,54,44,36,39,36,34,93,75,50,30.27,30.22,30.18,10,9,4,7,2,,0.00,3,,172
2012-10-9,60,45,30,42,33,28,97,84,39,30.23,30.16,30.00,10,4,0,10,1,,0.00,2,Fog,192
2012-10-10,57,46,33,45,38,30,93,73,40,30.23,30.03,29.93,10,10,5,16,4,26,0.01,4,Rain,268
2012-10-11,60,44,28,34,30,25,89,67,33,30.32,30.24,30.16,10,9,6,9,2,,0.00,0,,218
2012-10-12,59,46,34,38,33,26,89,65,30,30.41,30.32,30.18,10,10,10,10,2,16,0.00,1,,10
2012-10-13,70,51,32,53,39,28,88,64,42,30.39,30.25,30.04,10,10,8,13,3,18,0.00,1,,174
2012-10-14,75,68,62,59,56,54,75,66,50,30.03,29.87,29.68,10,10,5,22,10,36,0.04,6,Rain,192
2012-10-15,62,56,50,55,47,41,94,77,66,29.95,29.84,29.71,10,9,2,15,10,33,0.06,8,Rain,264
2012-10-16,61,48,35,42,38,34,100,78,41,30.02,29.96,29.85,10,7,0,10,1,,0.00,1,Fog,207
2012-10-17,75,59,43,50,45,40,89,60,37,29.87,29.78,29.65,10,10,9,13,4,18,0.00,2,,162
2012-10-18,63,54,46,49,43,32,83,59,32,29.77,29.65,29.54,10,10,4,26,10,37,0.07,4,Rain-Thunderstorm,189
2012-10-19,62,54,46,45,42,37,87,73,39,29.73,29.67,29.57,10,9,4,20,7,28,0.32,6,Rain,191
2012-10-20,55,50,44,45,43,39,93,80,57,29.98,29.78,29.70,10,9,4,15,8,22,0.13,8,Rain,230
2012-10-21,61,47,33,45,37,32,97,86,47,30.16,30.09,30.00,10,5,0,10,1,,0.00,2,Fog,193
2012-10-22,75,56,37,53,44,36,93,75,43,30.18,30.12,30.05,10,7,2,13,1,,0.00,1,,194
2012-10-23,75,64,53,54,52,50,93,69,45,30.07,30.04,29.99,10,10,6,20,3,26,0.06,1,Rain,236
2012-10-24,79,66,54,57,54,50,90,69,42,30.13,30.08,30.03,10,9,5,10,4,24,0.05,3,Rain,212
2012-10-25,79,62,46,53,49,44,93,67,36,30.10,30.03,29.97,10,10,6,10,2,17,0.00,0,,193
2012-10-26,63,56,48,55,48,44,90,81,69,30.12,30.08,29.99,10,10,7,14,5,23,0.05,6,Rain,358
2012-10-27,52,50,48,47,44,41,93,84,74,30.09,30.05,30.01,10,7,3,15,7,21,0.70,8,Rain,2
2012-10-28,48,44,41,43,40,36,86,80,74,30.06,30.00,29.95,10,9,4,14,9,24,0.52,8,Rain,1
2012-10-29,44,42,37,39,37,33,93,84,79,29.95,29.82,29.51,10,10,8,23,12,36,0.29,8,Rain,332
2012-10-30,41,38,35,37,34,30,86,84,79,29.53,29.38,29.31,10,8,4,28,21,43,0.07,8,Rain-Snow,310
2012-10-31,43,40,39,38,37,35,93,87,82,29.73,29.64,29.52,10,8,2,13,10,20,0.01,8,Rain,272